Time;durP1;ratioP1;P1;durP2;ratioP2;P2;SDS_P1;SDS_P2;PMS_P1;PMS_P2;Temp;Humidity;BMP_temperature;BMP_pressure;BME280_temperature;BME280_humidity;BME280_pressure;Samples;Min_cycle;Max_cycle;Signal;HPM_P1;HPM_P2
2022/11/01 00:00:00;;;;;;;45.22;17.15;;;;;;;13.74;100.00;100773.06;5074110;28;20407;-48
2022/11/01 00:02:25;;;;;;;39.00;16.88;;;;;;;13.79;100.00;100758.47;5073410;28;20111;-49
2022/11/01 00:04:50;;;;;;;40.35;16.33;;;;;;;13.81;100.00;100755.91;5074259;28;20032;-48
2022/11/01 00:07:16;;;;;;;42.30;16.42;;;;;;;13.82;100.00;100750.75;5074026;28;20029;-48
2022/11/01 00:09:41;;;;;;;42.40;17.23;;;;;;;13.90;100.00;100742.22;5073178;28;20056;-46
2022/11/01 00:12:06;;;;;;;38.38;16.05;;;;;;;13.95;100.00;100736.25;5073824;28;20060;-47
2022/11/01 00:14:31;;;;;;;40.70;16.75;;;;;;;13.98;100.00;100743.19;5074151;28;20013;-48
2022/11/01 00:16:57;;;;;;;43.83;15.52;;;;;;;14.04;100.00;100735.50;5072865;28;20032;-47
2022/11/01 00:19:22;;;;;;;40.92;15.77;;;;;;;14.15;99.69;100731.34;5073976;28;20024;-48
2022/11/01 00:21:47;;;;;;;46.38;16.63;;;;;;;14.24;99.05;100730.59;5073803;28;20400;-46
2022/11/01 00:24:13;;;;;;;35.78;15.05;;;;;;;14.30;99.18;100727.19;5072239;28;20365;-48
2022/11/01 00:26:38;;;;;;;41.35;14.48;;;;;;;14.41;98.70;100724.72;5073637;28;20052;-49
2022/11/01 00:29:04;;;;;;;35.90;13.73;;;;;;;14.58;98.16;100724.94;5073586;28;20392;-48
2022/11/01 00:31:29;;;;;;;32.80;13.95;;;;;;;14.71;97.54;100737.22;5072977;28;20103;-48
2022/11/01 00:33:54;;;;;;;37.45;14.18;;;;;;;14.91;96.63;100726.16;5073404;28;20508;-47
2022/11/01 00:36:19;;;;;;;31.30;13.15;;;;;;;15.03;96.22;100723.69;5073293;28;20032;-47
2022/11/01 00:38:49;;;;;;;37.58;11.95;;;;;;;15.13;95.68;100728.13;5072915;28;20175;-46
2022/11/01 00:41:14;;;;;;;34.38;12.05;;;;;;;15.32;94.88;100717.88;5073289;28;20023;-49
2022/11/01 00:43:39;;;;;;;26.02;11.65;;;;;;;15.39;94.34;100719.66;5073160;28;20100;-47
2022/11/01 00:46:05;;;;;;;25.77;11.50;;;;;;;15.50;93.75;100718.88;5072487;28;20044;-49
2022/11/01 00:48:30;;;;;;;32.72;12.52;;;;;;;15.48;93.89;100721.47;5073383;28;20024;-48
2022/11/01 00:50:56;;;;;;;31.00;12.13;;;;;;;15.49;93.56;100720.59;5072435;28;20099;-47
2022/11/01 00:53:21;;;;;;;26.63;11.15;;;;;;;15.51;93.47;100724.09;5073197;28;20028;-46
2022/11/01 00:55:46;;;;;;;36.33;11.68;;;;;;;15.51;93.61;100723.22;5073034;28;20070;-47
2022/11/01 00:58:12;;;;;;;32.22;11.80;;;;;;;15.47;94.00;100720.59;5072233;28;20109;-48
2022/11/01 01:00:38;;;;;;;30.30;11.65;;;;;;;15.46;93.77;100720.56;5073333;28;20029;-48
2022/11/01 01:03:04;;;;;;;28.02;11.27;;;;;;;15.46;93.88;100713.66;5072944;28;20376;-48
2022/11/01 01:05:31;;;;;;;36.47;11.97;;;;;;;15.46;93.80;100715.38;5072350;28;20063;-47
2022/11/01 01:07:56;;;;;;;29.95;12.18;;;;;;;15.45;93.44;100704.13;5072840;28;20271;-48
2022/11/01 01:10:21;;;;;;;32.50;11.73;;;;;;;15.47;93.90;100706.75;5073092;28;20021;-44
2022/11/01 01:12:47;;;;;;;27.08;10.90;;;;;;;15.46;93.97;100708.44;5072375;28;20031;-48
2022/11/01 01:15:12;;;;;;;26.05;12.07;;;;;;;15.44;94.24;100707.59;5073045;28;20020;-48
2022/11/01 01:17:38;;;;;;;28.88;11.55;;;;;;;15.48;94.00;100698.97;5073030;28;20499;-48
2022/11/01 01:20:04;;;;;;;34.97;11.35;;;;;;;15.50;94.56;100698.97;5071974;28;20024;-48
2022/11/01 01:22:29;;;;;;;33.13;11.95;;;;;;;15.52;94.25;100698.97;5072972;28;20058;-48
2022/11/01 01:24:54;;;;;;;29.45;11.80;;;;;;;15.54;94.86;100694.66;5072432;28;20028;-46
2022/11/01 01:27:20;;;;;;;37.75;12.07;;;;;;;15.54;94.56;100702.44;5071903;28;20107;-49
2022/11/01 01:29:45;;;;;;;28.15;12.68;;;;;;;15.55;94.95;100705.06;5072930;28;20071;-49
2022/11/01 01:32:13;;;;;;;25.50;12.30;;;;;;;15.56;94.90;100703.34;5072790;28;20081;-49
2022/11/01 01:34:38;;;;;;;32.88;12.07;;;;;;;15.63;94.85;100707.69;5071936;28;20036;-49
2022/11/01 01:37:04;;;;;;;30.38;12.10;;;;;;;15.66;94.57;100697.34;5072369;28;20024;-48
2022/11/01 01:39:29;;;;;;;25.65;11.32;;;;;;;15.69;94.71;100691.31;5072443;28;20480;-48
2022/11/01 01:41:54;;;;;;;27.77;11.82;;;;;;;15.66;94.71;100699.06;5072059;28;20028;-48
2022/11/01 01:44:44;;;;;;;33.65;12.30;;;;;;;15.62;95.40;100706.84;5072671;28;20071;-48
2022/11/01 01:47:14;;;;;;;28.88;12.30;;;;;;;15.57;95.66;100703.34;5071825;28;20021;-48
2022/11/01 01:49:40;;;;;;;40.22;13.48;;;;;;;15.66;95.60;100693.88;5072612;28;20029;-46
2022/11/01 01:52:05;;;;;;;31.30;11.82;;;;;;;15.66;95.32;100702.53;5072410;28;20035;-45
2022/11/01 01:54:31;;;;;;;30.77;12.20;;;;;;;15.66;95.49;100692.16;5071749;28;20056;-48
2022/11/01 01:56:57;;;;;;;31.92;11.52;;;;;;;15.71;95.46;100695.66;5072206;28;20036;-45
2022/11/01 01:59:23;;;;;;;29.58;12.15;;;;;;;15.74;95.45;100685.25;5072532;28;20017;-46
2022/11/01 02:01:48;;;;;;;31.80;12.43;;;;;;;15.77;95.15;100690.47;5071587;28;20089;-47
2022/11/01 02:04:27;;;;;;;40.65;13.00;;;;;;;15.79;94.86;100688.75;5072296;28;20039;-48
2022/11/01 02:06:53;;;;;;;42.30;13.13;;;;;;;15.87;94.59;100687.94;5072374;28;20036;-45
2022/11/01 02:09:19;;;;;;;29.58;11.52;;;;;;;15.92;94.41;100684.53;5071811;28;20101;-47
2022/11/01 02:11:44;;;;;;;30.27;12.13;;;;;;;15.95;94.13;100684.53;5072402;28;20031;-47
2022/11/01 02:14:10;;;;;;;32.88;11.10;;;;;;;15.98;93.91;100682.81;5072243;28;20020;-45
2022/11/01 02:16:53;;;;;;;35.85;12.38;;;;;;;15.95;94.11;100684.53;5071561;28;20028;-48
2022/11/01 02:19:31;;;;;;;29.17;11.40;;;;;;;15.96;93.85;100691.47;5072576;28;20115;-48
2022/11/01 02:22:05;;;;;;;36.47;12.23;;;;;;;15.99;93.83;100690.63;5072013;28;20028;-47
2022/11/01 02:25:03;;;;;;;43.45;11.45;;;;;;;16.01;94.11;100695.81;5071910;28;20040;-47
2022/11/01 02:27:40;;;;;;;29.27;11.82;;;;;;;15.95;93.96;100704.47;5045334;28;20047;-47
2022/11/01 02:30:21;;;;;;;26.95;11.20;;;;;;;15.90;94.23;100699.22;5071485;28;20096;-49
2022/11/01 02:32:58;;;;;;;26.77;11.63;;;;;;;15.83;94.81;100699.19;5072136;28;20476;-48
2022/11/01 02:35:38;;;;;;;29.17;11.47;;;;;;;15.86;94.40;100688.81;5072249;28;20033;-48
2022/11/01 02:38:09;;;;;;;31.10;11.15;;;;;;;15.86;94.15;100692.28;5071570;28;20029;-48
2022/11/01 02:40:41;;;;;;;32.65;11.45;;;;;;;15.86;94.60;100704.41;5072153;28;20021;-44
2022/11/01 02:43:22;;;;;;;30.42;11.05;;;;;;;15.84;94.50;100706.13;5071863;28;20043;-47
2022/11/01 02:45:49;;;;;;;25.65;10.35;;;;;;;15.83;93.56;100701.78;5071537;28;20064;-48
2022/11/01 02:48:18;;;;;;;28.03;9.80;;;;;;;15.79;93.95;100693.94;5074503;28;20055;-48
2022/11/01 02:50:55;;;;;;;26.00;11.25;;;;;;;15.78;94.13;100707.78;5074901;28;20065;-47
2022/11/01 02:53:20;;;;;;;28.23;12.05;;;;;;;15.75;94.05;100717.31;5075768;28;20016;-46
2022/11/01 02:55:46;;;;;;;27.08;11.60;;;;;;;15.73;94.35;100713.84;5075482;28;20039;-47
2022/11/01 02:58:23;;;;;;;27.42;10.73;;;;;;;15.68;95.00;100713.78;5074526;28;20495;-48
2022/11/01 03:00:48;;;;;;;29.67;11.10;;;;;;;15.66;95.08;100710.34;5075257;28;20115;-46
2022/11/01 03:03:23;;;;;;;26.27;10.23;;;;;;;15.59;95.13;100711.16;5075216;28;20112;-47
2022/11/01 03:06:04;;;;;;;27.60;11.05;;;;;;;15.60;95.97;100718.09;5074634;28;20031;-48
2022/11/01 03:08:36;;;;;;;30.10;11.02;;;;;;;15.59;95.93;100716.34;5075238;28;20039;-48
2022/11/01 03:11:13;;;;;;;42.97;11.35;;;;;;;15.56;96.06;100716.34;5074784;28;20032;-46
2022/11/01 03:13:59;;;;;;;33.85;11.65;;;;;;;15.52;96.23;100732.72;5074843;28;20375;-48
2022/11/01 03:16:56;;;;;;;31.73;11.45;;;;;;;15.56;96.27;100731.91;5075319;28;20029;-49
2022/11/01 03:19:48;;;;;;;28.90;11.07;;;;;;;15.59;95.45;100740.56;5074278;28;20025;-48
2022/11/01 03:22:25;;;;;;;32.22;11.43;;;;;;;15.53;96.50;100744.88;5075102;28;20090;-48
2022/11/01 03:25:02;;;;;;;29.08;9.88;;;;;;;15.52;94.30;100751.81;5074835;28;20036;-48
2022/11/01 03:27:38;;;;;;;23.30;9.70;;;;;;;15.52;94.39;100750.91;5074456;28;20104;-48
2022/11/01 03:30:09;;;;;;;30.50;10.52;;;;;;;15.45;94.84;100761.28;5074673;28;20024;-48
2022/11/01 03:32:45;;;;;;;22.83;9.43;;;;;;;15.45;92.85;100756.09;5074607;28;20469;-47
2022/11/01 03:35:18;;;;;;;20.15;7.75;;;;;;;15.44;90.87;100762.13;5074790;28;20021;-48
2022/11/01 03:37:45;;;;;;;19.08;7.78;;;;;;;15.40;89.71;100762.97;5074678;28;20036;-46
2022/11/01 03:40:13;;;;;;;20.00;7.55;;;;;;;15.36;89.10;100771.56;5073752;28;20032;-48
2022/11/01 03:42:39;;;;;;;;;;;;;;;15.35;88.94;100780.22;5075276;28;20043;-49
2022/11/01 03:45:10;;;;;;;18.83;6.20;;;;;;;15.23;86.19;100788.75;5074212;28;20356;-49
2022/11/01 03:47:36;;;;;;;16.33;5.72;;;;;;;15.19;84.60;100783.53;5074076;28;20032;-47
2022/11/01 03:50:27;;;;;;;16.27;4.50;;;;;;;15.14;84.71;100792.16;5074326;28;20030;-46
2022/11/01 03:52:53;;;;;;;13.23;4.32;;;;;;;15.06;80.72;100798.13;5069042;28;20040;-49
2022/11/01 03:55:20;;;;;;;21.65;4.05;;;;;;;15.10;77.27;100805.94;5074090;28;20035;-50
2022/11/01 03:57:53;;;;;;;12.90;3.65;;;;;;;15.06;77.00;100819.75;5074132;28;20032;-49
2022/11/01 04:00:28;;;;;;;10.38;3.08;;;;;;;15.00;77.27;100817.06;5073516;28;20070;-47
2022/11/01 04:02:54;;;;;;;9.60;3.53;;;;;;;14.87;76.89;100815.22;5073578;28;20025;-48
2022/11/01 04:05:22;;;;;;;12.90;3.00;;;;;;;14.81;74.59;100848.00;5074231;28;20029;-47
2022/11/01 04:07:47;;;;;;;14.50;2.88;;;;;;;14.77;72.69;100835.88;5073781;28;20020;-45
2022/11/01 04:10:13;;;;;;;10.95;2.38;;;;;;;14.71;71.78;100843.56;5074038;28;20031;-47
2022/11/01 04:12:39;;;;;;;11.05;2.55;;;;;;;14.61;71.57;100849.44;5074170;28;20024;-47
2022/11/01 04:20:45;;;;;;;11.15;2.33;;;;;;;14.36;72.96;100872.47;5073741;28;20036;-47
2022/11/01 04:23:10;;;;;;;12.15;2.33;;;;;;;14.23;73.76;100875.72;5073232;28;20016;-48
2022/11/01 04:25:36;;;;;;;10.05;2.50;;;;;;;14.19;73.25;100890.38;5073897;28;20031;-48
2022/11/01 04:28:01;;;;;;;8.73;2.20;;;;;;;14.13;73.68;100888.53;5073330;28;20032;-47
2022/11/01 04:30:28;;;;;;;7.55;2.10;;;;;;;14.08;73.15;100897.94;5073160;28;20027;-48
2022/11/01 04:32:54;;;;;;;12.07;2.00;;;;;;;13.97;73.68;100890.03;5073579;28;20017;-48
2022/11/01 04:35:19;;;;;;;10.52;2.20;;;;;;;13.95;73.55;100902.06;5073573;28;20387;-48
2022/11/01 04:37:45;;;;;;;12.50;2.58;;;;;;;13.90;73.70;100908.03;5072981;28;20102;-48
2022/11/01 04:40:12;;;;;;;9.80;2.00;;;;;;;13.88;73.47;100909.72;5073456;28;20036;-48
2022/11/01 04:42:38;;;;;;;14.00;2.17;;;;;;;13.77;74.71;100930.25;5073186;28;20116;-47
2022/11/01 04:45:05;;;;;;;7.28;2.05;;;;;;;13.75;74.12;100930.25;5072513;28;20047;-47
2022/11/01 04:47:30;;;;;;;13.60;2.10;;;;;;;13.69;74.45;100939.63;5073217;28;20040;-48
2022/11/01 04:49:56;;;;;;;10.48;2.10;;;;;;;13.62;74.69;100930.84;5072978;28;20017;-48
2022/11/01 04:52:22;;;;;;;10.10;2.20;;;;;;;13.59;74.62;100934.25;5072943;28;20383;-48
2022/11/01 04:54:47;;;;;;;11.43;2.17;;;;;;;13.55;74.87;100942.81;5073080;28;20487;-48
2022/11/01 04:57:21;;;;;;;12.13;2.72;;;;;;;13.48;75.06;100952.19;5072185;28;20032;-48
2022/11/01 04:59:54;;;;;;;11.60;2.13;;;;;;;13.44;75.28;100960.75;5073377;28;20085;-48
2022/11/01 05:02:22;;;;;;;7.47;2.40;;;;;;;13.38;75.23;100965.78;5073106;28;20508;-47
2022/11/01 05:04:47;;;;;;;10.38;2.40;;;;;;;13.35;75.43;100986.41;5072471;28;20028;-49
2022/11/01 05:07:14;;;;;;;10.38;1.75;;;;;;;13.33;75.22;100988.09;5073032;28;20039;-47
2022/11/01 05:09:39;;;;;;;15.05;2.40;;;;;;;13.30;74.75;100996.66;5072739;28;20051;-47
2022/11/01 05:12:05;;;;;;;9.90;2.22;;;;;;;13.28;73.97;100980.22;5071898;28;20480;-49
2022/11/01 05:14:30;;;;;;;11.20;1.98;;;;;;;13.29;72.80;101004.41;5073055;28;20028;-48
2022/11/01 05:16:56;;;;;;;10.52;2.00;;;;;;;13.26;72.03;101006.91;5072698;28;20376;-47
2022/11/01 05:19:22;;;;;;;19.58;2.25;;;;;;;13.27;71.39;100995.72;5072388;28;20476;-48
2022/11/01 05:21:48;;;;;;;16.50;2.08;;;;;;;13.18;72.20;101010.22;5072850;28;20028;-47
2022/11/01 05:24:13;;;;;;;13.35;2.22;;;;;;;13.11;72.05;101004.88;5072550;28;20021;-48
2022/11/01 05:26:39;;;;;;;17.25;2.17;;;;;;;13.02;72.12;101013.31;5072310;28;20433;-48
2022/11/01 05:29:04;;;;;;;12.02;2.10;;;;;;;12.91;73.32;101014.78;5072712;28;20025;-47
2022/11/01 05:31:30;;;;;;;13.98;2.40;;;;;;;12.94;72.25;101020.03;5072706;28;20020;-49
2022/11/01 05:33:55;;;;;;;12.07;2.00;;;;;;;12.88;72.45;101019.91;5072030;28;20030;-47
2022/11/01 05:36:20;;;;;;;11.85;2.25;;;;;;;12.83;72.73;101023.25;5072763;28;20035;-46
2022/11/01 05:38:45;;;;;;;9.88;2.08;;;;;;;12.80;72.83;101022.31;5072399;28;20564;-48
2022/11/01 05:41:11;;;;;;;9.85;1.70;;;;;;;12.75;73.23;101024.78;5072465;28;20027;-48
2022/11/01 05:43:36;;;;;;;18.77;2.83;;;;;;;12.73;73.65;101026.47;5072940;28;20110;-48
2022/11/01 05:46:03;;;;;;;11.63;2.28;;;;;;;12.70;74.39;101031.53;5072055;28;20036;-48
2022/11/01 05:48:28;;;;;;;10.65;2.33;;;;;;;12.64;75.05;101044.31;5072276;28;20021;-46
2022/11/01 05:50:54;;;;;;;13.13;2.30;;;;;;;12.64;75.25;101039.16;5072452;28;20170;-47
2022/11/01 05:53:19;;;;;;;14.27;2.10;;;;;;;12.59;76.30;101041.63;5071988;28;20074;-47
2022/11/01 05:55:44;;;;;;;14.52;2.25;;;;;;;12.51;77.04;101051.78;5072401;28;20498;-48
2022/11/01 05:58:09;;;;;;;12.77;2.50;;;;;;;12.49;77.01;101048.28;5072534;28;20055;-47
2022/11/01 06:00:35;;;;;;;15.70;2.47;;;;;;;12.48;76.83;101051.69;5071918;28;20078;-47
2022/11/01 06:03:01;;;;;;;16.15;2.55;;;;;;;12.46;76.62;101061.16;5072323;28;20391;-46
2022/11/01 06:05:27;;;;;;;14.23;3.30;;;;;;;12.47;74.71;101054.25;5072618;28;20046;-46
2022/11/01 06:07:53;;;;;;;17.15;2.75;;;;;;;12.44;72.95;101059.34;5071499;28;20379;-47
2022/11/01 06:10:18;;;;;;;19.33;3.58;;;;;;;12.43;71.98;101058.47;5072405;28;20021;-49
2022/11/01 06:12:43;;;;;;;22.38;3.85;;;;;;;12.41;71.03;101073.06;5072266;28;20103;-48
2022/11/01 06:15:09;;;;;;;19.63;3.90;;;;;;;12.34;71.12;101068.56;5071389;28;20051;-47
2022/11/01 06:17:34;;;;;;;19.40;3.67;;;;;;;12.30;71.01;101087.41;5072396;28;20032;-47
2022/11/01 06:19:59;;;;;;;19.50;3.33;;;;;;;12.21;71.70;101095.81;5071695;28;20469;-45
2022/11/01 06:22:25;;;;;;;23.38;3.83;;;;;;;12.16;71.80;101095.69;5073199;28;20036;-44
2022/11/01 06:24:50;;;;;;;18.23;3.50;;;;;;;12.24;71.23;101101.06;5075798;28;20023;-46
2022/11/01 06:27:16;;;;;;;15.93;3.30;;;;;;;12.22;71.45;101107.91;5075803;28;20036;-44
2022/11/01 06:29:41;;;;;;;19.67;2.92;;;;;;;12.18;72.09;101101.75;5075563;28;20090;-44
2022/11/01 06:32:06;;;;;;;18.02;3.13;;;;;;;12.07;73.10;101100.63;5075871;28;20487;-45
2022/11/01 06:34:32;;;;;;;12.30;2.63;;;;;;;12.08;73.55;101102.34;5075804;28;20031;-44
2022/11/01 06:36:58;;;;;;;17.52;3.22;;;;;;;12.10;73.93;101113.59;5074838;28;20029;-44
2022/11/01 06:39:23;;;;;;;13.75;2.58;;;;;;;12.12;74.77;101117.13;5075755;28;20020;-45
2022/11/01 06:41:50;;;;;;;19.63;3.13;;;;;;;12.08;74.89;101123.00;5075434;28;20035;-44
2022/11/01 06:44:15;;;;;;;19.77;3.47;;;;;;;12.14;75.08;101130.94;5075268;28;20115;-45
2022/11/01 06:46:40;;;;;;;17.98;3.22;;;;;;;12.06;75.52;101127.28;5075586;28;20123;-43
2022/11/01 06:49:05;;;;;;;15.02;2.63;;;;;;;11.99;76.17;101128.81;5075372;28;20029;-49
2022/11/01 06:51:32;;;;;;;20.60;3.10;;;;;;;12.00;76.19;101142.59;5075137;28;20045;-44
2022/11/01 06:53:57;;;;;;;23.92;3.05;;;;;;;12.01;76.17;101141.78;5075226;28;20437;-47
2022/11/01 06:56:22;;;;;;;21.85;3.55;;;;;;;11.99;76.55;101138.25;5075305;28;20058;-44
2022/11/01 06:58:49;;;;;;;18.13;3.03;;;;;;;11.92;76.81;101142.34;5075010;28;20112;-45
2022/11/01 07:01:14;;;;;;;19.98;2.65;;;;;;;11.86;77.62;101143.06;5075512;28;20044;-44
2022/11/01 07:03:39;;;;;;;21.60;3.13;;;;;;;11.88;77.47;101150.84;5074631;28;20025;-45
2022/11/01 07:06:05;;;;;;;24.20;3.53;;;;;;;11.83;77.69;101142.94;5075188;28;20035;-46
2022/11/01 07:08:30;;;;;;;20.85;3.22;;;;;;;11.85;77.28;101161.97;5075235;28;20048;-46
2022/11/01 07:10:55;;;;;;;22.45;2.85;;;;;;;11.85;77.56;101153.31;5074472;28;20451;-43
2022/11/01 07:13:21;;;;;;;22.75;3.08;;;;;;;11.86;77.25;101168.88;5075390;28;20180;-45
2022/11/01 07:15:47;;;;;;;19.13;2.88;;;;;;;11.85;77.23;101176.56;5075245;28;20043;-43
2022/11/01 07:18:12;;;;;;;20.92;3.83;;;;;;;11.86;77.51;101179.22;5074221;28;20033;-44
2022/11/01 07:20:40;;;;;;;22.55;2.95;;;;;;;11.82;77.96;101181.66;5075267;28;20103;-45
2022/11/01 07:23:09;;;;;;;17.42;3.65;;;;;;;11.78;78.50;101185.84;5074783;28;20028;-46
2022/11/01 07:25:34;;;;;;;27.55;3.95;;;;;;;11.81;77.78;101201.44;5074800;28;20032;-44
2022/11/01 07:28:00;;;;;;;24.13;3.13;;;;;;;11.81;77.89;101196.28;5074871;28;20115;-43
2022/11/01 07:30:26;;;;;;;24.50;3.38;;;;;;;11.84;77.54;101208.41;5074532;28;20032;-47
2022/11/01 07:32:56;;;;;;;23.90;2.75;;;;;;;11.85;77.46;101205.88;5074103;28;20020;-43
2022/11/01 07:35:22;;;;;;;28.33;3.95;;;;;;;11.85;77.51;101213.63;5074904;28;20036;-46
2022/11/01 07:37:48;;;;;;;23.52;3.92;;;;;;;11.84;77.57;101216.16;5074337;28;20033;-44
2022/11/01 07:40:13;;;;;;;31.85;3.85;;;;;;;11.85;77.27;101223.03;5074234;28;20032;-44
2022/11/01 07:42:42;;;;;;;26.00;3.30;;;;;;;11.85;77.04;101223.94;5075011;28;20035;-46
2022/11/01 07:45:12;;;;;;;24.00;3.25;;;;;;;11.88;76.51;101230.91;5074133;28;20102;-47
2022/11/01 07:47:37;;;;;;;27.05;4.28;;;;;;;11.86;76.81;101230.88;5073995;28;20033;-44
2022/11/01 07:50:04;;;;;;;23.05;3.50;;;;;;;11.91;75.87;101237.88;5074295;28;20033;-45
2022/11/01 07:52:30;;;;;;;25.00;3.53;;;;;;;11.93;75.58;101231.03;5074200;28;20046;-43
2022/11/01 07:54:55;;;;;;;27.70;3.63;;;;;;;11.96;75.35;101231.16;5073611;28;20372;-46
2022/11/01 07:57:21;;;;;;;25.35;4.03;;;;;;;11.97;75.28;101236.38;5074299;28;20028;-46
2022/11/01 07:59:46;;;;;;;30.58;4.13;;;;;;;11.98;74.90;101239.81;5074100;28;20059;-48
2022/11/01 08:02:11;;;;;;;30.77;4.40;;;;;;;12.02;75.04;101250.31;5073737;28;20062;-48
2022/11/01 08:04:36;;;;;;;31.10;4.80;;;;;;;12.07;74.42;101254.72;5074232;28;20027;-46
2022/11/01 08:07:02;;;;;;;35.00;5.13;;;;;;;12.14;74.68;101267.88;5073013;28;20021;-44
2022/11/01 08:09:27;;;;;;;26.48;4.07;;;;;;;12.15;74.48;101259.31;5074409;28;20142;-48
2022/11/01 08:11:52;;;;;;;29.48;3.97;;;;;;;12.21;74.38;101252.56;5074055;28;20483;-43
2022/11/01 08:14:17;;;;;;;32.78;3.70;;;;;;;12.23;74.05;101256.94;5073483;28;20043;-47
2022/11/01 08:16:46;;;;;;;26.20;4.38;;;;;;;12.26;73.19;101262.19;5073871;28;20025;-45
2022/11/01 08:19:11;;;;;;;32.90;4.38;;;;;;;12.31;73.41;101262.34;5073730;28;20023;-47
2022/11/01 08:21:37;;;;;;;36.72;4.65;;;;;;;12.37;72.82;101266.78;5073034;28;20021;-47
2022/11/01 08:24:02;;;;;;;35.13;4.38;;;;;;;12.41;72.48;101272.13;5073749;28;20017;-47
2022/11/01 08:26:27;;;;;;;25.02;3.85;;;;;;;12.44;72.27;101267.00;5073580;28;20090;-44
2022/11/01 08:28:53;;;;;;;40.15;4.53;;;;;;;12.49;72.62;101270.63;5072983;28;20029;-48
2022/11/01 08:31:18;;;;;;;34.95;5.18;;;;;;;12.52;71.40;101272.41;5073805;28;20100;-48
2022/11/01 08:33:44;;;;;;;34.63;4.65;;;;;;;12.50;71.86;101293.06;5073466;28;20039;-44
2022/11/01 08:36:09;;;;;;;34.08;4.63;;;;;;;12.48;72.10;101288.66;5072907;28;20426;-45
2022/11/01 08:38:34;;;;;;;37.28;5.63;;;;;;;12.50;71.87;101287.88;5073782;28;20021;-45
2022/11/01 08:41:00;;;;;;;32.42;4.22;;;;;;;12.54;71.90;101282.78;5073138;28;20052;-44
2022/11/01 08:43:25;;;;;;;35.63;4.55;;;;;;;12.62;71.57;101287.34;5073108;28;20024;-44
2022/11/01 08:45:50;;;;;;;37.35;4.55;;;;;;;12.62;70.71;101281.31;5072616;28;20064;-46
2022/11/01 08:48:16;;;;;;;33.33;5.40;;;;;;;12.68;70.88;101294.41;5073065;28;20024;-44
2022/11/01 08:50:41;;;;;;;34.47;4.85;;;;;;;12.70;70.45;101286.69;5072652;28;20357;-48
2022/11/01 08:53:09;;;;;;;34.50;4.63;;;;;;;12.72;70.82;101288.50;5073093;28;20047;-49
2022/11/01 08:55:37;;;;;;;;;;;;;;;12.82;71.24;101299.94;5073573;28;20021;-47
2022/11/01 08:58:03;;;;;;;38.80;4.40;;;;;;;12.89;70.02;101301.88;5072440;28;19912;-45
2022/11/01 09:00:28;;;;;;;37.08;4.57;;;;;;;12.96;69.52;101297.75;5073350;28;20016;-44
2022/11/01 09:02:54;;;;;;;37.53;5.88;;;;;;;13.05;69.00;101291.94;5072696;28;20387;-47
2022/11/01 09:05:19;;;;;;;29.30;4.60;;;;;;;13.17;68.82;101310.41;5072457;28;20024;-45
2022/11/01 09:07:45;;;;;;;38.63;4.30;;;;;;;13.30;68.39;101314.19;5073224;28;20491;-46
2022/11/01 09:10:11;;;;;;;30.67;5.05;;;;;;;13.47;68.08;101314.66;5072593;28;20087;-46
2022/11/01 09:12:36;;;;;;;44.05;4.80;;;;;;;13.71;68.06;101310.91;5072658;28;20021;-48
2022/11/01 09:15:04;;;;;;;40.22;5.47;;;;;;;13.81;65.69;101313.75;5072850;28;20454;-46
2022/11/01 09:17:29;;;;;;;36.53;4.65;;;;;;;13.89;65.49;101313.06;5071983;28;20081;-44
2022/11/01 09:19:54;;;;;;;38.15;5.35;;;;;;;13.98;65.88;101319.34;5072605;28;20024;-45
2022/11/01 09:22:21;;;;;;;36.63;4.65;;;;;;;14.10;65.59;101316.16;5072881;28;20369;-46
2022/11/01 09:24:46;;;;;;;31.13;5.03;;;;;;;14.08;65.03;101312.63;5072174;28;20029;-47
2022/11/01 09:27:11;;;;;;;29.02;4.95;;;;;;;14.11;64.89;101327.38;5072905;28;20497;-45
2022/11/01 09:29:36;;;;;;;32.35;4.40;;;;;;;14.23;65.56;101334.53;5072711;28;20032;-47
2022/11/01 09:32:02;;;;;;;39.75;5.18;;;;;;;14.21;64.34;101320.69;5072070;28;20028;-47
2022/11/01 09:34:27;;;;;;;39.53;5.00;;;;;;;14.18;64.25;101325.78;5072674;28;20036;-45
2022/11/01 09:36:53;;;;;;;35.20;4.88;;;;;;;14.14;64.49;101328.31;5072357;28;20032;-45
2022/11/01 09:39:20;;;;;;;36.35;4.50;;;;;;;14.36;64.71;101344.38;5072297;28;20025;-44
2022/11/01 09:42:02;;;;;;;35.58;4.53;;;;;;;14.40;64.77;101351.38;5072840;28;20024;-44
2022/11/01 09:44:36;;;;;;;28.23;3.90;;;;;;;14.55;63.81;101350.84;5072526;28;20028;-45
2022/11/01 09:47:06;;;;;;;29.65;4.85;;;;;;;14.86;64.14;101361.00;5071884;28;20086;-47
2022/11/01 09:49:35;;;;;;;32.78;4.13;;;;;;;15.01;62.82;101358.69;5072805;28;20020;-44
2022/11/01 09:52:01;;;;;;;30.10;3.83;;;;;;;14.89;62.19;101374.91;5072103;28;20498;-47
2022/11/01 09:54:27;;;;;;;28.15;4.80;;;;;;;14.90;63.35;101371.47;5072059;28;20059;-47
2022/11/01 09:57:12;;;;;;;26.88;4.00;;;;;;;14.98;62.54;101374.22;5075147;28;20047;-43
2022/11/01 10:00:08;;;;;;;29.08;4.25;;;;;;;14.95;62.84;101377.63;5075846;28;20016;-47
2022/11/01 10:02:58;;;;;;;35.58;5.70;;;;;;;14.90;62.78;101378.38;5076667;28;20029;-46
2022/11/01 10:05:42;;;;;;;35.50;4.97;;;;;;;15.10;63.10;101384.84;5076308;28;20039;-48
2022/11/01 10:08:36;;;;;;;32.92;5.13;;;;;;;15.07;63.57;101389.97;5075781;28;20465;-47
2022/11/01 10:11:13;;;;;;;33.97;4.45;;;;;;;14.99;62.44;101394.16;5076195;28;20024;-47
2022/11/01 10:14:07;;;;;;;28.70;3.95;;;;;;;15.06;62.39;101406.38;5075486;28;20464;-46
2022/11/01 10:16:36;;;;;;;28.08;3.72;;;;;;;15.19;62.35;101404.91;5065454;28;20051;-45
2022/11/01 10:19:13;;;;;;;42.55;5.05;;;;;;;15.43;61.92;101412.31;5075775;28;20024;-47
2022/11/01 10:21:48;;;;;;;35.88;5.22;;;;;;;15.47;61.30;101408.03;5075701;28;20537;-44
2022/11/01 10:24:33;;;;;;;35.28;4.53;;;;;;;15.51;61.44;101407.25;5075996;28;20029;-47
2022/11/01 10:27:17;;;;;;;28.90;4.38;;;;;;;15.56;61.26;101404.75;5075595;28;20410;-49
2022/11/01 10:29:53;;;;;;;35.22;4.70;;;;;;;15.53;61.74;101404.66;5075711;28;20100;-47
2022/11/01 10:32:44;;;;;;;32.22;4.55;;;;;;;15.38;61.37;101407.88;5076073;28;20021;-44
2022/11/01 10:35:20;;;;;;;32.72;4.68;;;;;;;15.65;61.44;101410.09;5075225;28;20482;-44
2022/11/01 10:38:12;;;;;;;29.77;4.28;;;;;;;15.74;60.84;101412.00;5075873;28;20115;-46
2022/11/01 10:40:42;;;;;;;39.33;4.70;;;;;;;15.77;60.43;101412.03;5075772;28;20376;-47
2022/11/01 10:43:13;;;;;;;31.48;4.85;;;;;;;16.06;59.90;101420.34;5075190;28;20494;-44
2022/11/01 10:45:41;;;;;;;29.98;4.68;;;;;;;16.16;59.56;101410.09;5075832;28;20181;-49
2022/11/01 10:48:18;;;;;;;29.42;4.13;;;;;;;16.25;58.69;101412.81;5075515;28;20060;-45
2022/11/01 10:50:43;;;;;;;32.78;4.97;;;;;;;16.28;59.23;101405.06;5075220;28;20025;-47
2022/11/01 10:53:11;;;;;;;29.13;4.28;;;;;;;16.56;58.63;101400.25;5075516;28;20025;-49
2022/11/01 10:55:47;;;;;;;30.45;4.43;;;;;;;16.42;58.26;101408.75;5075340;28;20063;-48
2022/11/01 10:58:28;;;;;;;32.28;3.80;;;;;;;16.53;57.92;101410.66;5075508;28;20033;-47
2022/11/01 11:00:53;;;;;;;30.00;4.43;;;;;;;16.44;57.71;101407.03;5074994;28;20480;-45
2022/11/01 11:03:24;;;;;;;38.75;4.25;;;;;;;16.24;57.91;101405.88;5075002;28;20023;-47
2022/11/01 11:05:52;;;;;;;29.15;3.85;;;;;;;16.29;58.31;101417.22;5075307;28;20103;-44
2022/11/01 11:08:20;;;;;;;22.77;3.63;;;;;;;16.33;58.03;101415.53;5074446;28;20031;-45
2022/11/01 11:10:47;;;;;;;29.90;4.03;;;;;;;16.32;57.74;101406.88;5074827;28;20016;-46
2022/11/01 11:13:15;;;;;;;27.85;4.00;;;;;;;16.68;57.62;101404.75;5075257;28;20875;-45
2022/11/01 11:15:45;;;;;;;30.67;3.97;;;;;;;16.76;57.47;101398.81;5074840;28;20082;-48
2022/11/01 11:18:22;;;;;;;30.20;4.40;;;;;;;16.74;56.42;101404.84;5074320;28;20475;-47
2022/11/01 11:20:58;;;;;;;36.38;3.97;;;;;;;16.55;57.17;101395.91;5075106;28;20107;-46
2022/11/01 11:23:26;;;;;;;23.35;4.00;;;;;;;16.54;56.99;101392.44;5075046;28;20031;-47
2022/11/01 11:25:52;;;;;;;23.45;3.75;;;;;;;16.46;57.54;101389.75;5074548;28;20028;-46